Time,TemperatureF,DewpointF,PressureIn,WindDirection,WindDirectionDegrees,WindSpeedMPH,WindSpeedGustMPH,Humidity,HourlyPrecipIn,Conditions,Clouds,dailyrainin,SoftwareType,DateUTC
2013-11-13 00:11:00,24.3,20.0,30.61,West,272,5.0,7.0,83,0.00,,,0.00,weatherlink.com 1.10,2013-11-13 05:11:00,
2013-11-13 00:26:00,24.2,20.0,30.61,NNW,327,6.0,8.0,83,0.00,,,0.00,weatherlink.com 1.10,2013-11-13 05:26:00,
2013-11-13 00:41:00,24.1,20.0,30.61,SW,226,5.0,9.0,85,0.00,,,0.00,weatherlink.com 1.10,2013-11-13 05:41:00,
2013-11-13 00:56:00,24.1,20.0,30.61,NW,305,1.0,10.0,84,0.00,,,0.00,weatherlink.com 1.10,2013-11-13 05:56:00,
2013-11-13 01:11:00,23.9,20.0,30.61,WNW,284,5.0,10.0,84,0.00,,,0.00,weatherlink.com 1.10,2013-11-13 06:11:00,
2013-11-13 01:26:00,23.9,20.0,30.61,West,271,1.0,9.0,85,0.00,,,0.00,weatherlink.com 1.10,2013-11-13 06:26:00,
2013-11-13 01:41:00,23.7,20.0,30.61,WNW,295,0.0,7.0,86,0.00,,,0.00,weatherlink.com 1.10,2013-11-13 06:41:00,
2013-11-13 01:56:00,23.4,20.0,30.61,West,277,1.0,4.0,86,0.00,,,0.00,weatherlink.com 1.10,2013-11-13 06:56:00,
2013-11-13 02:11:00,23.1,20.0,30.60,West,272,2.0,4.0,87,0.00,,,0.00,weatherlink.com 1.10,2013-11-13 07:11:00,
2013-11-13 02:26:00,23.0,20.0,30.61,West,272,2.0,6.0,87,0.00,,,0.00,weatherlink.com 1.10,2013-11-13 07:26:00,
2013-11-13 02:41:00,22.9,20.0,30.61,West,267,1.0,5.0,87,0.00,,,0.00,weatherlink.com 1.10,2013-11-13 07:41:00,
2013-11-13 02:56:00,22.8,19.0,30.61,West,272,0.0,3.0,86,0.00,,,0.00,weatherlink.com 1.10,2013-11-13 07:56:00,
2013-11-13 03:11:00,22.6,19.0,30.61,West,272,0.0,3.0,86,0.00,,,0.00,weatherlink.com 1.10,2013-11-13 08:11:00,
2013-11-13 03:26:00,22.3,19.0,30.60,West,271,2.0,2.0,87,0.00,,,0.00,weatherlink.com 1.10,2013-11-13 08:26:00,
2013-11-13 03:41:00,21.9,19.0,30.60,West,268,1.0,3.0,87,0.00,,,0.00,weatherlink.com 1.10,2013-11-13 08:41:00,
2013-11-13 03:56:00,21.8,19.0,30.60,West,273,1.0,2.0,88,0.00,,,0.00,weatherlink.com 1.10,2013-11-13 08:56:00,
2013-11-13 04:12:00,21.7,19.0,30.61,West,271,1.0,6.0,88,0.00,,,0.00,weatherlink.com 1.10,2013-11-13 09:12:00,
2013-11-13 04:26:00,21.6,19.0,30.61,West,261,0.0,4.0,88,0.00,,,0.00,weatherlink.com 1.10,2013-11-13 09:26:00,
2013-11-13 04:41:00,21.4,18.0,30.61,WSW,242,2.0,6.0,88,0.00,,,0.00,weatherlink.com 1.10,2013-11-13 09:41:00,
2013-11-13 04:56:00,21.2,19.0,30.60,West,263,1.0,5.0,89,0.00,,,0.00,weatherlink.com 1.10,2013-11-13 09:56:00,
2013-11-13 05:11:00,21.2,19.0,30.60,West,265,2.0,5.0,90,0.00,,,0.00,weatherlink.com 1.10,2013-11-13 10:11:00,
2013-11-13 05:26:00,21.0,18.0,30.60,WSW,256,1.0,5.0,89,0.00,,,0.00,weatherlink.com 1.10,2013-11-13 10:26:00,
2013-11-13 05:42:00,20.8,18.0,30.59,WSW,254,0.0,3.0,90,0.00,,,0.00,weatherlink.com 1.10,2013-11-13 10:42:00,
2013-11-13 05:57:00,20.6,18.0,30.59,WSW,243,2.0,5.0,90,0.00,,,0.00,weatherlink.com 1.10,2013-11-13 10:57:00,
2013-11-13 06:12:00,20.6,18.0,30.60,West,278,2.0,3.0,90,0.00,,,0.00,weatherlink.com 1.10,2013-11-13 11:12:00,
2013-11-13 06:27:00,20.4,18.0,30.59,SW,220,2.0,3.0,90,0.00,,,0.00,weatherlink.com 1.10,2013-11-13 11:27:00,
2013-11-13 06:42:00,20.3,18.0,30.60,WSW,237,2.0,3.0,90,0.00,,,0.00,weatherlink.com 1.10,2013-11-13 11:42:00,
2013-11-13 06:57:00,20.2,18.0,30.59,SW,217,1.0,3.0,90,0.00,,,0.00,weatherlink.com 1.10,2013-11-13 11:57:00,
2013-11-13 07:12:00,20.0,18.0,30.59,WSW,240,1.0,3.0,90,0.00,,,0.00,weatherlink.com 1.10,2013-11-13 12:12:00,
2013-11-13 07:27:00,19.9,18.0,30.59,WSW,240,0.0,3.0,90,0.00,,,0.00,weatherlink.com 1.10,2013-11-13 12:27:00,
2013-11-13 07:42:00,19.7,18.0,30.59,SW,233,3.0,3.0,91,0.00,,,0.00,weatherlink.com 1.10,2013-11-13 12:42:00,
2013-11-13 07:57:00,19.8,18.0,30.59,WSW,244,2.0,5.0,91,0.00,,,0.00,weatherlink.com 1.10,2013-11-13 12:57:00,
2013-11-13 08:12:00,20.0,18.0,30.59,SW,224,2.0,4.0,91,0.00,,,0.00,weatherlink.com 1.10,2013-11-13 13:12:00,
2013-11-13 08:27:00,20.6,18.0,30.59,SW,236,3.0,4.0,91,0.00,,,0.00,weatherlink.com 1.10,2013-11-13 13:27:00,
2013-11-13 08:42:00,21.4,19.0,30.60,WSW,252,2.0,7.0,90,0.00,,,0.00,weatherlink.com 1.10,2013-11-13 13:42:00,
2013-11-13 08:57:00,22.2,19.0,30.60,West,267,1.0,4.0,88,0.00,,,0.00,weatherlink.com 1.10,2013-11-13 13:57:00,
2013-11-13 09:12:00,23.1,20.0,30.60,WNW,286,5.0,5.0,87,0.00,,,0.00,weatherlink.com 1.10,2013-11-13 14:12:00,
2013-11-13 09:27:00,24.2,20.0,30.59,WSW,241,1.0,6.0,83,0.00,,,0.00,weatherlink.com 1.10,2013-11-13 14:27:00,
2013-11-13 09:42:00,25.1,20.0,30.59,WSW,239,2.0,6.0,81,0.00,,,0.00,weatherlink.com 1.10,2013-11-13 14:42:00,
2013-11-13 09:57:00,26.2,20.0,30.59,WSW,242,2.0,5.0,78,0.00,,,0.00,weatherlink.com 1.10,2013-11-13 14:57:00,
2013-11-13 10:12:00,27.4,20.0,30.59,SW,235,3.0,6.0,73,0.00,,,0.00,weatherlink.com 1.10,2013-11-13 15:12:00,
2013-11-13 10:27:00,28.7,20.0,30.58,WSW,253,2.0,8.0,70,0.00,,,0.00,weatherlink.com 1.10,2013-11-13 15:27:00,
2013-11-13 10:42:00,29.2,19.0,30.58,WSW,251,3.0,5.0,67,0.00,,,0.00,weatherlink.com 1.10,2013-11-13 15:42:00,
2013-11-13 10:57:00,30.4,19.0,30.58,WSW,240,3.0,7.0,64,0.00,,,0.00,weatherlink.com 1.10,2013-11-13 15:57:00,
2013-11-13 11:12:00,31.6,20.0,30.57,WSW,244,5.0,13.0,62,0.00,,,0.00,weatherlink.com 1.10,2013-11-13 16:12:00,
2013-11-13 11:27:00,32.5,20.0,30.56,WSW,239,4.0,9.0,61,0.00,,,0.00,weatherlink.com 1.10,2013-11-13 16:27:00,
2013-11-13 11:42:00,32.6,20.0,30.55,West,272,4.0,7.0,60,0.00,,,0.00,weatherlink.com 1.10,2013-11-13 16:42:00,
2013-11-13 11:57:00,33.6,21.0,30.55,WSW,238,3.0,6.0,60,0.00,,,0.00,weatherlink.com 1.10,2013-11-13 16:57:00,
2013-11-13 12:12:00,34.6,21.0,30.55,WSW,244,4.0,7.0,57,0.00,,,0.00,weatherlink.com 1.10,2013-11-13 17:12:00,
2013-11-13 12:28:00,35.2,22.0,30.54,SW,236,5.0,9.0,59,0.00,,,0.00,weatherlink.com 1.10,2013-11-13 17:28:00,
2013-11-13 12:43:00,35.7,22.0,30.53,WSW,247,3.0,9.0,58,0.00,,,0.00,weatherlink.com 1.10,2013-11-13 17:43:00,
2013-11-13 12:58:00,36.2,22.0,30.52,WSW,242,3.0,6.0,56,0.00,,,0.00,weatherlink.com 1.10,2013-11-13 17:58:00,
2013-11-13 13:13:00,36.5,22.0,30.51,SSW,207,3.0,7.0,55,0.00,,,0.00,weatherlink.com 1.10,2013-11-13 18:13:00,
2013-11-13 13:28:00,37.0,22.0,30.50,SW,234,5.0,7.0,56,0.01,,,0.01,weatherlink.com 1.10,2013-11-13 18:28:00,
2013-11-13 13:43:00,36.8,22.0,30.50,SW,233,3.0,8.0,55,0.01,,,0.01,weatherlink.com 1.10,2013-11-13 18:43:00,
2013-11-13 13:58:00,37.1,22.0,30.49,SW,234,5.0,6.0,55,0.01,,,0.01,weatherlink.com 1.10,2013-11-13 18:58:00,
2013-11-13 14:13:00,37.4,22.0,30.48,SW,234,4.0,6.0,55,0.01,,,0.01,weatherlink.com 1.10,2013-11-13 19:13:00,
2013-11-13 14:28:00,37.8,21.0,30.47,SW,235,4.0,8.0,52,0.00,,,0.01,weatherlink.com 1.10,2013-11-13 19:28:00,
2013-11-13 14:43:00,37.7,23.0,30.46,SW,217,3.0,7.0,55,0.00,,,0.01,weatherlink.com 1.10,2013-11-13 19:43:00,
2013-11-13 14:58:00,37.6,23.0,30.46,SSW,213,7.0,8.0,55,0.00,,,0.01,weatherlink.com 1.10,2013-11-13 19:58:00,
2013-11-13 15:13:00,37.5,22.0,30.45,WSW,239,3.0,7.0,54,0.00,,,0.01,weatherlink.com 1.10,2013-11-13 20:13:00,
2013-11-13 15:28:00,36.9,21.0,30.45,SW,228,4.0,7.0,53,0.00,,,0.01,weatherlink.com 1.10,2013-11-13 20:28:00,
2013-11-13 15:43:00,37.2,22.0,30.44,SW,217,3.0,7.0,54,0.00,,,0.01,weatherlink.com 1.10,2013-11-13 20:43:00,
2013-11-13 15:58:00,37.5,23.0,30.44,SSW,201,2.0,6.0,55,0.00,,,0.01,weatherlink.com 1.10,2013-11-13 20:58:00,
2013-11-13 16:13:00,36.9,22.0,30.43,SW,229,4.0,6.0,55,0.00,,,0.01,weatherlink.com 1.10,2013-11-13 21:13:00,
2013-11-13 16:28:00,36.4,21.0,30.42,SW,227,3.0,7.0,54,0.00,,,0.01,weatherlink.com 1.10,2013-11-13 21:28:00,
2013-11-13 16:43:00,36.0,22.0,30.42,SW,231,4.0,7.0,57,0.00,,,0.01,weatherlink.com 1.10,2013-11-13 21:43:00,
2013-11-13 16:58:00,35.3,21.0,30.41,SW,227,4.0,6.0,57,0.00,,,0.01,weatherlink.com 1.10,2013-11-13 21:58:00,
2013-11-13 17:13:00,34.8,22.0,30.41,SW,225,2.0,6.0,59,0.00,,,0.01,weatherlink.com 1.10,2013-11-13 22:13:00,
2013-11-13 17:28:00,34.3,22.0,30.41,SW,228,2.0,4.0,61,0.00,,,0.01,weatherlink.com 1.10,2013-11-13 22:28:00,
2013-11-13 17:43:00,33.8,22.0,30.40,SW,227,4.0,6.0,62,0.00,,,0.01,weatherlink.com 1.10,2013-11-13 22:43:00,
2013-11-13 17:58:00,33.4,22.0,30.40,SW,215,3.0,6.0,63,0.00,,,0.01,weatherlink.com 1.10,2013-11-13 22:58:00,
2013-11-13 18:13:00,33.1,23.0,30.40,SW,216,4.0,6.0,66,0.00,,,0.01,weatherlink.com 1.10,2013-11-13 23:13:00,
2013-11-13 18:28:00,32.8,23.0,30.39,SW,227,4.0,5.0,66,0.00,,,0.01,weatherlink.com 1.10,2013-11-13 23:28:00,
2013-11-13 18:43:00,32.7,23.0,30.38,SW,223,3.0,6.0,67,0.00,,,0.01,weatherlink.com 1.10,2013-11-13 23:43:00,
2013-11-13 18:58:00,32.6,22.0,30.38,SW,227,4.0,7.0,66,0.00,,,0.01,weatherlink.com 1.10,2013-11-13 23:58:00,
2013-11-13 19:13:00,32.3,22.0,30.38,SW,229,3.0,5.0,67,0.00,,,0.01,weatherlink.com 1.10,2013-11-14 00:13:00,
2013-11-13 19:28:00,32.1,23.0,30.37,SW,232,3.0,5.0,68,0.00,,,0.01,weatherlink.com 1.10,2013-11-14 00:28:00,
2013-11-13 19:43:00,31.9,22.0,30.37,SW,215,4.0,5.0,68,0.00,,,0.01,weatherlink.com 1.10,2013-11-14 00:43:00,
2013-11-13 19:58:00,31.6,22.0,30.36,SW,232,3.0,7.0,69,0.00,,,0.01,weatherlink.com 1.10,2013-11-14 00:58:00,
2013-11-13 20:13:00,31.5,22.0,30.36,SW,234,3.0,5.0,69,0.00,,,0.01,weatherlink.com 1.10,2013-11-14 01:13:00,
2013-11-13 20:28:00,31.4,22.0,30.36,SW,227,2.0,8.0,69,0.00,,,0.01,weatherlink.com 1.10,2013-11-14 01:28:00,
2013-11-13 20:43:00,31.7,22.0,30.35,SW,227,4.0,7.0,67,0.00,,,0.01,weatherlink.com 1.10,2013-11-14 01:43:00,
2013-11-13 20:58:00,31.6,22.0,30.35,SW,236,4.0,6.0,68,0.00,,,0.01,weatherlink.com 1.10,2013-11-14 01:58:00,
2013-11-13 21:13:00,31.4,22.0,30.35,SW,235,5.0,7.0,69,0.00,,,0.01,weatherlink.com 1.10,2013-11-14 02:13:00,
2013-11-13 21:28:00,31.3,22.0,30.34,SW,219,2.0,7.0,68,0.00,,,0.01,weatherlink.com 1.10,2013-11-14 02:28:00,
2013-11-13 21:44:00,31.1,22.0,30.34,SW,226,3.0,6.0,68,0.00,,,0.01,weatherlink.com 1.10,2013-11-14 02:44:00,
2013-11-13 21:59:00,31.1,22.0,30.33,SW,229,5.0,8.0,69,0.00,,,0.01,weatherlink.com 1.10,2013-11-14 02:59:00,
2013-11-13 22:14:00,30.9,22.0,30.33,SW,229,4.0,7.0,69,0.00,,,0.01,weatherlink.com 1.10,2013-11-14 03:14:00,
2013-11-13 22:29:00,30.8,22.0,30.32,SW,234,4.0,7.0,70,0.00,,,0.01,weatherlink.com 1.10,2013-11-14 03:29:00,
2013-11-13 22:44:00,30.7,22.0,30.31,SSW,208,5.0,7.0,69,0.00,,,0.01,weatherlink.com 1.10,2013-11-14 03:44:00,
2013-11-13 22:59:00,30.6,22.0,30.31,WSW,238,4.0,7.0,70,0.00,,,0.01,weatherlink.com 1.10,2013-11-14 03:59:00,
2013-11-13 23:14:00,30.5,22.0,30.30,SW,231,3.0,6.0,70,0.00,,,0.01,weatherlink.com 1.10,2013-11-14 04:14:00,
2013-11-13 23:29:00,30.6,22.0,30.30,SW,229,6.0,8.0,70,0.00,,,0.00,weatherlink.com 1.10,2013-11-14 04:29:00,
2013-11-13 23:44:00,30.6,22.0,30.30,SW,220,3.0,7.0,70,0.00,,,0.00,weatherlink.com 1.10,2013-11-14 04:44:00,
2013-11-13 23:59:00,30.7,22.0,30.30,SW,227,3.0,7.0,70,0.00,,,0.00,weatherlink.com 1.10,2013-11-14 04:59:00,